Time;durP1;ratioP1;P1;durP2;ratioP2;P2;SDS_P1;SDS_P2;PMS_P1;PMS_P2;Temp;Humidity;BMP_temperature;BMP_pressure;BME280_temperature;BME280_humidity;BME280_pressure;Samples;Min_cycle;Max_cycle;Signal;HPM_P1;HPM_P2
2022/05/06 00:01:33;;;;;;;;;;;20.40;47.70;;;;;;486952;245;1239;-76
2022/05/06 00:03:37;;;;;;;;;;;20.30;47.70;;;;;;486857;245;1057;-75
2022/05/06 00:05:35;;;;;;;;;;;20.20;47.90;;;;;;486638;245;2201;-75
2022/05/06 00:07:37;;;;;;;;;;;20.10;48.00;;;;;;486875;245;977;-75
2022/05/06 00:09:38;;;;;;;;;;;20.20;47.90;;;;;;486884;245;980;-75
2022/05/06 00:11:39;;;;;;;;;;;20.30;48.00;;;;;;486907;245;1090;-75
2022/05/06 00:13:41;;;;;;;;;;;20.20;47.90;;;;;;486977;245;1007;-76
2022/05/06 00:15:42;;;;;;;;;;;20.30;47.80;;;;;;486878;245;958;-75
2022/05/06 00:17:43;;;;;;;;;;;20.40;47.50;;;;;;486909;245;1019;-76
2022/05/06 00:19:45;;;;;;;;;;;20.30;47.60;;;;;;486928;245;1204;-76
2022/05/06 00:21:46;;;;;;;;;;;20.40;47.60;;;;;;486744;245;1221;-75
2022/05/06 00:23:48;;;;;;;;;;;20.30;47.80;;;;;;486830;245;1077;-75
2022/05/06 00:25:49;;;;;;;;;;;20.40;47.50;;;;;;486851;243;2190;-75
2022/05/06 00:27:50;;;;;;;;;;;20.40;47.40;;;;;;486917;245;1058;-75
2022/05/06 00:29:51;;;;;;;;;;;20.40;47.30;;;;;;486905;245;1317;-75
2022/05/06 00:31:53;;;;;;;;;;;20.40;47.30;;;;;;486892;245;1429;-75
2022/05/06 00:33:54;;;;;;;;;;;20.30;47.50;;;;;;486890;245;1041;-75
2022/05/06 00:35:55;;;;;;;;;;;20.30;47.70;;;;;;486914;245;1276;-75
2022/05/06 00:37:58;;;;;;;;;;;20.30;47.80;;;;;;486900;245;1023;-76
2022/05/06 00:39:58;;;;;;;;;;;20.30;47.80;;;;;;486870;245;1392;-76
2022/05/06 00:42:00;;;;;;;;;;;20.30;47.80;;;;;;486900;245;1116;-75
2022/05/06 00:44:01;;;;;;;;;;;20.30;47.60;;;;;;486874;245;1037;-75
2022/05/06 00:46:03;;;;;;;;;;;20.30;47.60;;;;;;486916;245;2126;-75
2022/05/06 00:48:03;;;;;;;;;;;20.20;47.60;;;;;;486854;245;1262;-76
2022/05/06 00:50:05;;;;;;;;;;;20.30;47.60;;;;;;486933;245;976;-76
2022/05/06 00:52:06;;;;;;;;;;;20.30;47.50;;;;;;486855;245;1097;-76
2022/05/06 00:54:07;;;;;;;;;;;20.20;47.60;;;;;;486866;245;970;-76
2022/05/06 00:56:09;;;;;;;;;;;20.30;47.60;;;;;;486886;245;1167;-76
2022/05/06 00:58:10;;;;;;;;;;;20.30;47.40;;;;;;486932;245;961;-76
2022/05/06 01:00:20;;;;;;;;;;;20.30;47.50;;;;;;486867;245;1223;-75
2022/05/06 01:02:23;;;;;;;;;;;20.30;47.50;;;;;;486812;245;977;-75
2022/05/06 01:04:24;;;;;;;;;;;20.40;47.10;;;;;;486909;245;1119;-75
2022/05/06 01:06:26;;;;;;;;;;;20.30;47.30;;;;;;486822;245;2201;-75
2022/05/06 01:08:29;;;;;;;;;;;20.30;47.60;;;;;;487053;245;1284;-75
2022/05/06 01:10:29;;;;;;;;;;;20.20;47.60;;;;;;486903;245;1540;-75
2022/05/06 01:12:30;;;;;;;;;;;20.30;47.60;;;;;;486895;245;985;-76
2022/05/06 01:14:32;;;;;;;;;;;20.30;47.50;;;;;;486943;245;1150;-75
2022/05/06 01:16:34;;;;;;;;;;;20.30;47.50;;;;;;486860;245;1277;-75
2022/05/06 01:18:35;;;;;;;;;;;20.30;47.40;;;;;;486862;245;1163;-75
2022/05/06 01:20:36;;;;;;;;;;;20.30;47.50;;;;;;486906;245;1162;-75
2022/05/06 01:22:38;;;;;;;;;;;20.30;47.40;;;;;;486832;245;1178;-75
2022/05/06 01:24:39;;;;;;;;;;;20.30;47.50;;;;;;486894;245;1067;-76
2022/05/06 01:26:40;;;;;;;;;;;20.30;47.40;;;;;;486834;245;2205;-76
2022/05/06 01:28:42;;;;;;;;;;;20.40;47.20;;;;;;487070;245;1079;-76
2022/05/06 01:30:44;;;;;;;;;;;20.30;47.30;;;;;;486862;245;1229;-76
2022/05/06 01:32:45;;;;;;;;;;;20.30;47.60;;;;;;486989;245;1252;-76
2022/05/06 01:34:46;;;;;;;;;;;20.30;47.50;;;;;;486951;245;1096;-75
2022/05/06 01:36:48;;;;;;;;;;;20.10;47.80;;;;;;486879;245;1216;-76
2022/05/06 01:38:49;;;;;;;;;;;20.30;47.50;;;;;;486879;245;1057;-75
2022/05/06 01:40:51;;;;;;;;;;;20.30;47.60;;;;;;486865;243;1421;-75
2022/05/06 01:42:52;;;;;;;;;;;20.20;47.70;;;;;;486904;245;959;-75
2022/05/06 01:44:53;;;;;;;;;;;20.20;47.70;;;;;;486926;245;1042;-75
2022/05/06 01:46:55;;;;;;;;;;;20.30;47.50;;;;;;486777;245;2181;-75
2022/05/06 01:48:56;;;;;;;;;;;20.40;47.40;;;;;;486874;245;1008;-76
2022/05/06 01:50:57;;;;;;;;;;;20.30;47.30;;;;;;486855;245;1227;-76
2022/05/06 01:52:59;;;;;;;;;;;20.30;47.30;;;;;;486970;245;1036;-76
2022/05/06 01:55:01;;;;;;;;;;;20.40;47.30;;;;;;486841;245;973;-75
2022/05/06 01:57:01;;;;;;;;;;;20.20;47.60;;;;;;486863;245;1210;-75
2022/05/06 01:59:03;;;;;;;;;;;20.30;47.50;;;;;;486849;245;1043;-75
2022/05/06 02:01:05;;;;;;;;;;;20.20;47.60;;;;;;486910;245;1187;-76
2022/05/06 02:05:16;;;;;;;;;;;20.20;47.70;;;;;;487096;245;1451;-76
2022/05/06 02:05:20;;;;;;;;;;;20.20;47.70;;;;;;485274;245;1113;-75
2022/05/06 02:07:21;;;;;;;;;;;20.20;47.50;;;;;;486984;245;2197;-75
2022/05/06 02:09:22;;;;;;;;;;;20.30;47.60;;;;;;486915;245;1068;-75
2022/05/06 02:11:24;;;;;;;;;;;20.20;47.50;;;;;;486854;245;1193;-75
2022/05/06 02:13:25;;;;;;;;;;;20.30;47.40;;;;;;486969;245;995;-75
2022/05/06 02:15:27;;;;;;;;;;;20.20;47.60;;;;;;486953;245;969;-75
2022/05/06 02:17:28;;;;;;;;;;;20.20;47.70;;;;;;486956;245;1083;-75
2022/05/06 02:19:29;;;;;;;;;;;20.20;47.60;;;;;;486984;245;1194;-75
2022/05/06 02:21:31;;;;;;;;;;;20.10;47.80;;;;;;486946;240;1305;-75
2022/05/06 02:23:32;;;;;;;;;;;20.10;47.90;;;;;;486951;245;1068;-75
2022/05/06 02:25:33;;;;;;;;;;;20.10;47.80;;;;;;486957;245;1084;-75
2022/05/06 02:27:34;;;;;;;;;;;20.10;47.90;;;;;;486928;245;2174;-76
2022/05/06 02:29:36;;;;;;;;;;;20.30;47.50;;;;;;487007;245;972;-75
2022/05/06 02:33:57;;;;;;;;;;;20.20;47.60;;;;;;487006;245;979;-75
2022/05/06 02:35:58;;;;;;;;;;;20.10;47.80;;;;;;486855;245;1125;-76
2022/05/06 02:38:00;;;;;;;;;;;20.20;47.50;;;;;;486860;245;1169;-76
2022/05/06 02:40:01;;;;;;;;;;;20.30;47.40;;;;;;486982;245;948;-75
2022/05/06 02:42:02;;;;;;;;;;;20.20;47.50;;;;;;486996;245;1232;-76
2022/05/06 02:44:04;;;;;;;;;;;20.20;47.70;;;;;;487048;245;968;-75
2022/05/06 02:46:05;;;;;;;;;;;20.20;47.70;;;;;;487003;245;1089;-76
2022/05/06 02:48:06;;;;;;;;;;;20.00;48.10;;;;;;486854;245;2186;-76
2022/05/06 02:50:08;;;;;;;;;;;20.20;47.80;;;;;;487001;245;1149;-76
2022/05/06 02:52:10;;;;;;;;;;;20.20;47.70;;;;;;486983;245;1254;-76
2022/05/06 02:54:10;;;;;;;;;;;20.20;47.80;;;;;;486991;245;953;-75
2022/05/06 02:56:12;;;;;;;;;;;20.10;47.80;;;;;;486972;245;1236;-76
2022/05/06 02:58:13;;;;;;;;;;;20.20;47.80;;;;;;487004;245;1053;-76
2022/05/06 03:00:14;;;;;;;;;;;20.30;47.70;;;;;;486993;245;1059;-76
2022/05/06 03:02:16;;;;;;;;;;;20.30;47.30;;;;;;486917;245;989;-75
2022/05/06 03:04:17;;;;;;;;;;;20.20;47.70;;;;;;486959;245;1381;-75
2022/05/06 03:06:18;;;;;;;;;;;20.20;47.60;;;;;;486976;245;2120;-75
2022/05/06 03:08:20;;;;;;;;;;;20.30;47.60;;;;;;487035;245;1175;-75
2022/05/06 03:10:21;;;;;;;;;;;20.10;48.00;;;;;;487101;245;939;-75
2022/05/06 03:12:26;;;;;;;;;;;20.10;48.00;;;;;;486956;245;1145;-75
2022/05/06 03:14:24;;;;;;;;;;;20.00;48.30;;;;;;486889;245;1331;-76
2022/05/06 03:16:25;;;;;;;;;;;20.20;48.00;;;;;;486952;245;1133;-76
2022/05/06 03:18:27;;;;;;;;;;;20.10;48.00;;;;;;486998;245;956;-76
2022/05/06 03:20:28;;;;;;;;;;;20.10;48.00;;;;;;486868;245;1384;-76
2022/05/06 03:22:29;;;;;;;;;;;20.20;48.00;;;;;;487065;245;1161;-75
2022/05/06 03:24:30;;;;;;;;;;;20.30;47.80;;;;;;487008;245;981;-75
2022/05/06 03:26:32;;;;;;;;;;;20.10;47.90;;;;;;486886;245;2179;-75
2022/05/06 03:28:34;;;;;;;;;;;20.20;48.00;;;;;;486973;245;976;-75
2022/05/06 03:30:39;;;;;;;;;;;20.20;47.90;;;;;;486910;245;1412;-75
2022/05/06 03:32:36;;;;;;;;;;;20.10;48.00;;;;;;486733;245;1417;-75
2022/05/06 03:34:37;;;;;;;;;;;20.10;48.00;;;;;;486959;245;1041;-76
2022/05/06 03:36:39;;;;;;;;;;;20.10;48.10;;;;;;486844;245;1173;-75
2022/05/06 03:38:40;;;;;;;;;;;20.10;48.20;;;;;;486928;245;1173;-75
2022/05/06 03:40:41;;;;;;;;;;;20.10;48.10;;;;;;486956;245;1033;-75
2022/05/06 03:42:43;;;;;;;;;;;20.10;48.30;;;;;;486881;245;999;-75
2022/05/06 03:44:44;;;;;;;;;;;20.00;48.30;;;;;;486903;245;982;-75
2022/05/06 03:46:45;;;;;;;;;;;20.10;48.10;;;;;;486846;245;2162;-75
2022/05/06 03:48:47;;;;;;;;;;;20.00;48.30;;;;;;486891;245;954;-76
2022/05/06 03:53:08;;;;;;;;;;;19.90;48.40;;;;;;487072;242;1166;-75
2022/05/06 03:55:09;;;;;;;;;;;19.90;48.50;;;;;;486902;245;995;-75
2022/05/06 03:57:10;;;;;;;;;;;19.90;48.60;;;;;;486890;245;1183;-75
2022/05/06 03:59:12;;;;;;;;;;;19.90;48.80;;;;;;486969;245;971;-75
2022/05/06 04:01:13;;;;;;;;;;;19.80;48.70;;;;;;486917;245;1237;-75
2022/05/06 04:03:14;;;;;;;;;;;19.80;48.70;;;;;;486933;245;1080;-75
2022/05/06 04:05:16;;;;;;;;;;;19.90;48.80;;;;;;486959;245;1107;-76
2022/05/06 04:07:17;;;;;;;;;;;19.90;48.80;;;;;;486865;241;2202;-76
2022/05/06 04:09:20;;;;;;;;;;;19.80;48.80;;;;;;486926;245;974;-75
2022/05/06 04:11:20;;;;;;;;;;;19.80;48.70;;;;;;486807;245;1478;-76
2022/05/06 04:13:21;;;;;;;;;;;19.80;48.80;;;;;;487093;245;1429;-76
2022/05/06 04:15:22;;;;;;;;;;;19.80;49.00;;;;;;486900;245;1151;-75
2022/05/06 04:17:24;;;;;;;;;;;19.80;49.00;;;;;;486719;245;1021;-75
2022/05/06 04:19:25;;;;;;;;;;;19.90;49.00;;;;;;486819;245;1083;-75
2022/05/06 04:23:46;;;;;;;;;;;19.90;48.70;;;;;;486827;245;1186;-75
2022/05/06 04:25:47;;;;;;;;;;;19.90;48.70;;;;;;486771;245;1096;-75
2022/05/06 04:27:48;;;;;;;;;;;19.90;48.80;;;;;;486802;245;2193;-75
2022/05/06 04:29:50;;;;;;;;;;;19.80;48.80;;;;;;486898;245;1110;-75
2022/05/06 04:31:51;;;;;;;;;;;19.80;48.80;;;;;;486782;245;1133;-76
2022/05/06 04:33:52;;;;;;;;;;;19.80;48.80;;;;;;486791;245;1068;-76
2022/05/06 04:35:54;;;;;;;;;;;19.90;48.90;;;;;;486688;245;1059;-76
2022/05/06 04:37:55;;;;;;;;;;;19.80;49.00;;;;;;486740;245;1127;-75
2022/05/06 04:39:56;;;;;;;;;;;19.90;48.90;;;;;;486827;245;1084;-76
2022/05/06 04:41:58;;;;;;;;;;;19.90;48.80;;;;;;486732;243;1256;-76
2022/05/06 04:43:59;;;;;;;;;;;20.00;48.70;;;;;;486743;245;1138;-76
2022/05/06 04:46:00;;;;;;;;;;;19.90;48.80;;;;;;486770;245;1101;-76
2022/05/06 04:48:02;;;;;;;;;;;19.90;48.80;;;;;;486737;245;2178;-76
2022/05/06 04:50:03;;;;;;;;;;;19.90;48.80;;;;;;486809;245;1003;-75
2022/05/06 04:52:04;;;;;;;;;;;19.80;48.90;;;;;;486686;245;1054;-76
2022/05/06 04:54:10;;;;;;;;;;;19.80;49.00;;;;;;486688;245;1172;-76
2022/05/06 04:56:07;;;;;;;;;;;19.80;49.10;;;;;;486402;245;1293;-75
2022/05/06 04:58:08;;;;;;;;;;;19.80;49.10;;;;;;486819;245;964;-76
2022/05/06 05:00:10;;;;;;;;;;;19.90;49.10;;;;;;486848;245;1105;-75
2022/05/06 05:02:11;;;;;;;;;;;19.90;49.00;;;;;;486692;245;1221;-76
2022/05/06 05:04:12;;;;;;;;;;;19.90;49.00;;;;;;486740;245;953;-75
2022/05/06 05:06:14;;;;;;;;;;;19.90;48.80;;;;;;486696;245;1109;-76
2022/05/06 05:08:15;;;;;;;;;;;19.90;48.80;;;;;;486630;245;2131;-75
2022/05/06 05:10:16;;;;;;;;;;;19.90;48.80;;;;;;486656;245;1206;-75
2022/05/06 05:12:18;;;;;;;;;;;19.80;49.10;;;;;;486693;245;1060;-75
2022/05/06 05:14:19;;;;;;;;;;;19.90;48.90;;;;;;486654;245;985;-76
2022/05/06 05:16:20;;;;;;;;;;;19.70;49.00;;;;;;486539;245;1149;-76
2022/05/06 05:18:22;;;;;;;;;;;19.90;49.00;;;;;;486841;245;1191;-76
2022/05/06 05:20:23;;;;;;;;;;;19.70;49.30;;;;;;486709;245;1314;-75
2022/05/06 05:22:24;;;;;;;;;;;20.00;48.90;;;;;;486600;245;1118;-75
2022/05/06 05:24:25;;;;;;;;;;;20.00;48.70;;;;;;486646;245;1168;-75
2022/05/06 05:26:27;;;;;;;;;;;19.90;48.80;;;;;;486515;245;1398;-75
2022/05/06 05:28:28;;;;;;;;;;;19.80;49.00;;;;;;486720;245;2194;-75
2022/05/06 05:30:29;;;;;;;;;;;19.70;49.10;;;;;;486742;245;1065;-75
2022/05/06 05:32:32;;;;;;;;;;;19.70;49.20;;;;;;486539;245;1184;-76
2022/05/06 05:34:32;;;;;;;;;;;19.70;49.20;;;;;;486715;245;1374;-76
2022/05/06 05:36:33;;;;;;;;;;;19.60;49.30;;;;;;486467;245;1178;-75
2022/05/06 05:38:35;;;;;;;;;;;19.70;49.30;;;;;;486713;245;1201;-75
2022/05/06 05:40:36;;;;;;;;;;;19.70;49.40;;;;;;486473;245;1132;-75
2022/05/06 05:42:37;;;;;;;;;;;19.80;49.30;;;;;;486498;245;1092;-75
2022/05/06 05:49:17;;;;;;;;;;;19.80;49.20;;;;;;486477;245;1048;-76
2022/05/06 05:51:19;;;;;;;;;;;19.80;49.30;;;;;;486267;245;1143;-75
2022/05/06 05:53:21;;;;;;;;;;;19.80;49.00;;;;;;486572;245;1202;-75
2022/05/06 05:55:21;;;;;;;;;;;19.80;49.30;;;;;;486383;245;1414;-75
2022/05/06 05:57:22;;;;;;;;;;;19.60;49.50;;;;;;486392;245;1328;-75
2022/05/06 05:59:24;;;;;;;;;;;19.70;49.40;;;;;;486468;245;1120;-75
2022/05/06 06:01:25;;;;;;;;;;;19.60;49.60;;;;;;486375;245;1178;-75
2022/05/06 06:03:27;;;;;;;;;;;19.70;49.40;;;;;;486406;245;1074;-75
2022/05/06 06:05:28;;;;;;;;;;;19.90;49.30;;;;;;486477;245;1031;-76
2022/05/06 06:07:29;;;;;;;;;;;19.80;49.20;;;;;;486512;245;2194;-76
2022/05/06 06:09:32;;;;;;;;;;;19.90;49.20;;;;;;486269;245;1144;-75
2022/05/06 06:11:32;;;;;;;;;;;19.90;49.10;;;;;;486236;245;1374;-76
2022/05/06 06:13:33;;;;;;;;;;;19.80;49.10;;;;;;486323;245;1256;-75
2022/05/06 06:15:35;;;;;;;;;;;19.80;49.20;;;;;;486304;245;1038;-75
2022/05/06 06:17:36;;;;;;;;;;;19.70;49.20;;;;;;486191;245;1844;-75
2022/05/06 06:19:37;;;;;;;;;;;19.70;49.40;;;;;;486237;245;1037;-75
2022/05/06 06:21:39;;;;;;;;;;;19.70;49.50;;;;;;486160;245;1187;-75
2022/05/06 06:23:40;;;;;;;;;;;19.80;49.40;;;;;;486282;245;1324;-75
2022/05/06 06:25:41;;;;;;;;;;;19.80;49.40;;;;;;486319;245;1146;-75
2022/05/06 06:27:43;;;;;;;;;;;19.90;49.40;;;;;;486350;245;2186;-75
2022/05/06 06:29:47;;;;;;;;;;;19.90;49.50;;;;;;486238;245;1115;-75
2022/05/06 06:31:46;;;;;;;;;;;20.10;49.50;;;;;;486114;245;1398;-75
2022/05/06 06:33:47;;;;;;;;;;;20.20;49.10;;;;;;486185;245;1080;-75
2022/05/06 06:35:49;;;;;;;;;;;20.30;49.10;;;;;;485916;245;1199;-75
2022/05/06 06:37:50;;;;;;;;;;;20.40;49.10;;;;;;486463;245;1273;-75
2022/05/06 06:39:51;;;;;;;;;;;20.40;49.10;;;;;;486361;245;1071;-75
2022/05/06 06:41:53;;;;;;;;;;;20.50;49.00;;;;;;486108;245;1260;-75
2022/05/06 06:43:54;;;;;;;;;;;20.50;49.00;;;;;;486124;245;1114;-75
2022/05/06 06:45:56;;;;;;;;;;;20.50;48.90;;;;;;486106;243;1157;-75
2022/05/06 06:47:57;;;;;;;;;;;20.60;48.80;;;;;;486042;245;2210;-75
2022/05/06 06:49:58;;;;;;;;;;;20.50;49.10;;;;;;486367;245;1332;-75
2022/05/06 06:52:00;;;;;;;;;;;20.60;49.00;;;;;;486072;245;1299;-75
2022/05/06 06:54:01;;;;;;;;;;;20.50;49.10;;;;;;486227;245;1151;-75
2022/05/06 06:56:02;;;;;;;;;;;20.70;48.90;;;;;;486155;245;1156;-75
2022/05/06 06:58:04;;;;;;;;;;;20.60;48.90;;;;;;486087;245;1039;-75
2022/05/06 07:00:05;;;;;;;;;;;20.40;49.20;;;;;;486046;245;1085;-76
2022/05/06 07:02:07;;;;;;;;;;;20.40;49.40;;;;;;485938;245;1578;-75
2022/05/06 07:04:08;;;;;;;;;;;20.40;49.50;;;;;;486185;245;1056;-75
2022/05/06 07:13:14;;;;;;;;;;;20.30;49.60;;;;;;477758;245;1173;-75
2022/05/06 07:15:16;;;;;;;;;;;20.30;49.50;;;;;;485902;245;1052;-75
2022/05/06 07:17:17;;;;;;;;;;;20.20;49.70;;;;;;486265;245;1210;-75
2022/05/06 07:19:20;;;;;;;;;;;20.00;50.40;;;;;;486165;245;1063;-75
2022/05/06 07:21:20;;;;;;;;;;;20.10;50.30;;;;;;486099;245;1446;-75
2022/05/06 07:23:21;;;;;;;;;;;20.30;49.80;;;;;;486292;245;1128;-75
2022/05/06 07:25:23;;;;;;;;;;;20.30;49.80;;;;;;486268;243;1214;-75
2022/05/06 07:27:25;;;;;;;;;;;20.40;49.60;;;;;;485930;245;1150;-75
2022/05/06 07:29:26;;;;;;;;;;;20.30;49.70;;;;;;486232;245;2182;-76
2022/05/06 07:31:27;;;;;;;;;;;20.50;49.50;;;;;;486144;245;1294;-76
2022/05/06 07:33:28;;;;;;;;;;;20.50;49.40;;;;;;486178;245;1107;-75
2022/05/06 07:35:30;;;;;;;;;;;20.50;49.50;;;;;;485385;245;1192;-75
2022/05/06 07:37:33;;;;;;;;;;;20.40;49.50;;;;;;486108;245;1163;-75
2022/05/06 07:39:33;;;;;;;;;;;20.60;49.20;;;;;;486020;245;1270;-75
2022/05/06 07:41:34;;;;;;;;;;;20.60;49.10;;;;;;485723;245;1120;-75
2022/05/06 07:43:36;;;;;;;;;;;20.50;49.10;;;;;;486012;245;1101;-75
2022/05/06 07:45:38;;;;;;;;;;;20.60;49.00;;;;;;485186;245;1074;-75
2022/05/06 07:47:38;;;;;;;;;;;20.70;48.90;;;;;;485610;245;1416;-75
2022/05/06 07:49:40;;;;;;;;;;;20.70;48.80;;;;;;485643;245;2202;-76
2022/05/06 07:51:43;;;;;;;;;;;20.80;48.60;;;;;;485961;245;1150;-75
2022/05/06 07:53:42;;;;;;;;;;;20.80;48.60;;;;;;485813;245;1295;-75
2022/05/06 07:55:44;;;;;;;;;;;20.70;48.80;;;;;;485888;245;1168;-75
2022/05/06 07:57:45;;;;;;;;;;;20.70;48.70;;;;;;486233;245;1078;-75
2022/05/06 07:59:46;;;;;;;;;;;20.60;48.90;;;;;;485972;245;1017;-75
2022/05/06 08:06:26;;;;;;;;;;;20.70;48.80;;;;;;485889;245;1298;-76
2022/05/06 08:08:27;;;;;;;;;;;20.70;48.80;;;;;;485953;245;2198;-75
2022/05/06 08:10:29;;;;;;;;;;;20.80;48.80;;;;;;485872;245;1357;-75
2022/05/06 08:12:30;;;;;;;;;;;20.70;48.70;;;;;;486506;245;1020;-75
2022/05/06 08:14:31;;;;;;;;;;;20.80;48.60;;;;;;486075;245;1066;-75
2022/05/06 08:16:33;;;;;;;;;;;20.90;48.60;;;;;;485886;245;1294;-76
2022/05/06 08:18:34;;;;;;;;;;;20.90;48.50;;;;;;486423;245;1061;-75
2022/05/06 08:20:35;;;;;;;;;;;20.70;48.60;;;;;;486793;245;1070;-75
2022/05/06 08:22:37;;;;;;;;;;;20.90;48.50;;;;;;486283;245;1089;-75
2022/05/06 08:24:38;;;;;;;;;;;20.90;48.60;;;;;;485895;245;1103;-76
2022/05/06 08:26:39;;;;;;;;;;;20.70;48.80;;;;;;485972;245;1181;-75
2022/05/06 08:28:41;;;;;;;;;;;20.70;48.90;;;;;;486065;245;2123;-76
2022/05/06 08:30:42;;;;;;;;;;;20.60;48.80;;;;;;485916;245;1043;-75
2022/05/06 08:32:43;;;;;;;;;;;20.80;48.60;;;;;;485955;245;1078;-75
2022/05/06 08:34:47;;;;;;;;;;;20.60;48.70;;;;;;486034;245;1109;-75
2022/05/06 08:36:47;;;;;;;;;;;20.70;48.80;;;;;;485770;245;1261;-75
2022/05/06 08:38:49;;;;;;;;;;;20.70;48.80;;;;;;485771;245;1422;-75
2022/05/06 08:40:50;;;;;;;;;;;20.70;48.80;;;;;;486190;245;1128;-75
2022/05/06 08:42:52;;;;;;;;;;;20.70;48.80;;;;;;485652;245;1226;-75
2022/05/06 08:51:51;;;;;;;;;;;20.80;48.70;;;;;;485869;245;1237;-75
2022/05/06 08:53:54;;;;;;;;;;;20.90;48.80;;;;;;485869;245;1024;-76
2022/05/06 08:55:55;;;;;;;;;;;20.70;48.90;;;;;;485897;245;1818;-75
2022/05/06 08:57:55;;;;;;;;;;;20.90;48.70;;;;;;486026;245;1411;-75
2022/05/06 08:59:57;;;;;;;;;;;21.00;48.50;;;;;;486000;245;1255;-75
2022/05/06 09:01:58;;;;;;;;;;;21.00;48.50;;;;;;486049;245;1132;-76
2022/05/06 09:03:59;;;;;;;;;;;21.00;48.50;;;;;;486089;245;1099;-75
2022/05/06 09:06:01;;;;;;;;;;;21.00;48.80;;;;;;485967;245;1113;-75
2022/05/06 09:08:02;;;;;;;;;;;20.90;49.00;;;;;;485898;245;1216;-75
2022/05/06 09:10:04;;;;;;;;;;;21.10;48.80;;;;;;485950;245;2170;-75
2022/05/06 09:16:46;;;;;;;;;;;21.20;48.50;;;;;;485764;245;1052;-75
2022/05/06 09:18:46;;;;;;;;;;;21.00;48.50;;;;;;485672;245;1254;-75
2022/05/06 09:20:49;;;;;;;;;;;21.00;48.60;;;;;;485644;245;1322;-75
2022/05/06 09:22:51;;;;;;;;;;;21.10;48.50;;;;;;485788;245;1329;-75
2022/05/06 09:24:50;;;;;;;;;;;21.10;48.50;;;;;;485513;245;1387;-76
2022/05/06 09:26:52;;;;;;;;;;;21.00;48.70;;;;;;485637;245;1163;-75
2022/05/06 09:28:53;;;;;;;;;;;21.20;48.60;;;;;;485950;245;2138;-75
2022/05/06 09:30:54;;;;;;;;;;;21.10;48.60;;;;;;485918;243;1221;-75
2022/05/06 09:32:55;;;;;;;;;;;21.10;48.60;;;;;;485757;245;1089;-75
2022/05/06 09:34:57;;;;;;;;;;;21.20;48.60;;;;;;485735;245;1104;-75
2022/05/06 09:36:58;;;;;;;;;;;21.10;48.60;;;;;;485768;245;1087;-75
2022/05/06 09:38:59;;;;;;;;;;;21.30;48.60;;;;;;485872;245;1092;-75
2022/05/06 09:41:01;;;;;;;;;;;21.10;48.80;;;;;;485967;245;1183;-75
2022/05/06 09:43:02;;;;;;;;;;;21.10;48.80;;;;;;485695;245;1137;-76
2022/05/06 09:45:03;;;;;;;;;;;21.10;48.70;;;;;;485700;245;1102;-76
2022/05/06 09:47:05;;;;;;;;;;;21.20;48.60;;;;;;485879;245;1074;-76
2022/05/06 09:49:06;;;;;;;;;;;21.20;48.50;;;;;;486048;245;2178;-76
2022/05/06 09:51:07;;;;;;;;;;;21.20;48.50;;;;;;486027;245;1192;-76
2022/05/06 09:53:09;;;;;;;;;;;21.10;48.60;;;;;;485878;245;1090;-76
2022/05/06 09:55:10;;;;;;;;;;;21.20;48.60;;;;;;485862;245;1174;-76
2022/05/06 09:57:11;;;;;;;;;;;21.10;48.70;;;;;;485903;245;1203;-76
2022/05/06 09:59:13;;;;;;;;;;;21.00;48.90;;;;;;485881;245;1048;-76
2022/05/06 10:01:14;;;;;;;;;;;21.20;48.50;;;;;;485921;245;1100;-75
2022/05/06 10:03:15;;;;;;;;;;;21.30;48.70;;;;;;485924;245;1076;-75
2022/05/06 10:05:17;;;;;;;;;;;21.10;48.80;;;;;;485890;245;1119;-76
2022/05/06 10:07:18;;;;;;;;;;;21.30;48.60;;;;;;485939;245;1080;-76
2022/05/06 10:09:19;;;;;;;;;;;21.20;48.50;;;;;;486032;245;2198;-76
2022/05/06 10:11:21;;;;;;;;;;;21.20;48.60;;;;;;486029;245;1185;-76
2022/05/06 10:13:22;;;;;;;;;;;21.20;48.50;;;;;;486290;245;1159;-76
2022/05/06 10:15:23;;;;;;;;;;;21.10;48.60;;;;;;486002;245;1086;-76
2022/05/06 10:17:25;;;;;;;;;;;21.20;48.50;;;;;;485924;245;1082;-76
2022/05/06 10:19:27;;;;;;;;;;;21.30;48.50;;;;;;485858;245;1149;-75
2022/05/06 10:21:28;;;;;;;;;;;21.20;48.80;;;;;;485779;245;1088;-76
2022/05/06 10:23:29;;;;;;;;;;;21.10;48.80;;;;;;485859;245;1162;-76
2022/05/06 10:25:31;;;;;;;;;;;21.30;48.60;;;;;;485861;245;1055;-76
2022/05/06 10:32:27;;;;;;;;;;;21.30;48.70;;;;;;485591;245;1146;-75
2022/05/06 10:34:29;;;;;;;;;;;21.40;48.50;;;;;;486285;245;1105;-76
2022/05/06 10:36:29;;;;;;;;;;;21.30;48.60;;;;;;485993;245;1457;-76
2022/05/06 10:38:31;;;;;;;;;;;21.30;48.60;;;;;;486100;245;1058;-75
2022/05/06 10:40:32;;;;;;;;;;;21.40;48.50;;;;;;486008;245;1090;-76
2022/05/06 10:42:34;;;;;;;;;;;21.40;48.40;;;;;;486118;245;1289;-76
2022/05/06 10:44:35;;;;;;;;;;;21.30;48.50;;;;;;486123;245;1070;-76
2022/05/06 10:46:37;;;;;;;;;;;21.40;48.40;;;;;;486117;245;1369;-76
2022/05/06 10:48:38;;;;;;;;;;;21.30;48.50;;;;;;485971;245;1231;-76
2022/05/06 10:50:39;;;;;;;;;;;21.30;48.50;;;;;;486046;245;2178;-76
2022/05/06 10:52:40;;;;;;;;;;;21.30;48.40;;;;;;486125;245;1093;-76
2022/05/06 10:54:42;;;;;;;;;;;21.50;48.40;;;;;;486185;245;1069;-76
2022/05/06 10:56:44;;;;;;;;;;;21.30;48.70;;;;;;486210;245;1108;-75
2022/05/06 10:58:44;;;;;;;;;;;21.30;48.50;;;;;;485934;245;1448;-76
2022/05/06 11:00:45;;;;;;;;;;;21.40;48.60;;;;;;485889;245;1321;-76
2022/05/06 11:02:47;;;;;;;;;;;21.40;48.40;;;;;;486092;245;1336;-76
2022/05/06 11:04:48;;;;;;;;;;;21.40;48.50;;;;;;486121;245;1062;-76
2022/05/06 11:06:49;;;;;;;;;;;21.40;48.50;;;;;;486008;245;1190;-76
2022/05/06 11:08:51;;;;;;;;;;;21.60;48.40;;;;;;485925;245;1109;-76
2022/05/06 11:10:54;;;;;;;;;;;21.40;48.70;;;;;;485905;245;2178;-76
2022/05/06 11:12:54;;;;;;;;;;;21.30;48.60;;;;;;485982;245;1284;-76
2022/05/06 11:14:55;;;;;;;;;;;21.40;48.50;;;;;;486107;245;1058;-76
2022/05/06 11:16:56;;;;;;;;;;;21.50;48.50;;;;;;486133;245;1435;-76
2022/05/06 11:19:02;;;;;;;;;;;21.40;48.70;;;;;;486222;245;1125;-76
2022/05/06 11:20:59;;;;;;;;;;;21.50;48.50;;;;;;486164;245;1373;-76
2022/05/06 11:23:01;;;;;;;;;;;21.60;48.40;;;;;;486169;245;1217;-76
2022/05/06 11:25:02;;;;;;;;;;;21.60;48.40;;;;;;486167;245;1130;-76
2022/05/06 11:27:03;;;;;;;;;;;21.50;48.50;;;;;;486136;245;1444;-76
2022/05/06 11:29:04;;;;;;;;;;;21.40;48.50;;;;;;486238;245;1046;-76
2022/05/06 11:31:06;;;;;;;;;;;21.50;48.60;;;;;;486160;245;2175;-76
2022/05/06 11:33:07;;;;;;;;;;;21.50;48.50;;;;;;486016;245;1099;-76
2022/05/06 11:35:09;;;;;;;;;;;21.50;48.50;;;;;;485995;245;1124;-75
2022/05/06 11:37:11;;;;;;;;;;;21.50;48.50;;;;;;485983;243;1229;-76
2022/05/06 11:39:12;;;;;;;;;;;21.50;48.50;;;;;;485922;245;1333;-76
2022/05/06 11:41:13;;;;;;;;;;;21.60;48.30;;;;;;485937;245;1266;-76
2022/05/06 11:43:15;;;;;;;;;;;21.60;48.20;;;;;;485999;245;1159;-76
2022/05/06 11:47:36;;;;;;;;;;;21.50;48.40;;;;;;486426;245;1168;-76
2022/05/06 11:49:37;;;;;;;;;;;21.60;48.40;;;;;;485808;245;2190;-76
2022/05/06 11:51:38;;;;;;;;;;;21.60;48.30;;;;;;486095;245;1123;-76
2022/05/06 11:53:41;;;;;;;;;;;21.60;48.30;;;;;;486291;245;939;-76
2022/05/06 11:55:42;;;;;;;;;;;21.60;48.40;;;;;;486448;245;1186;-76
2022/05/06 11:57:43;;;;;;;;;;;21.60;48.30;;;;;;486179;245;1185;-76
2022/05/06 11:59:44;;;;;;;;;;;21.60;48.20;;;;;;486104;245;1104;-75
2022/05/06 12:01:46;;;;;;;;;;;21.70;48.10;;;;;;486022;245;1160;-76
2022/05/06 12:03:47;;;;;;;;;;;21.80;48.10;;;;;;486068;245;1035;-76
2022/05/06 12:05:49;;;;;;;;;;;21.70;48.30;;;;;;486191;245;1214;-76
2022/05/06 12:07:50;;;;;;;;;;;21.60;48.40;;;;;;486185;245;1070;-76
2022/05/06 12:09:51;;;;;;;;;;;21.70;48.30;;;;;;486107;245;2190;-76
2022/05/06 12:11:53;;;;;;;;;;;21.60;48.20;;;;;;486179;245;1193;-76
2022/05/06 12:13:54;;;;;;;;;;;21.70;48.10;;;;;;486285;245;1216;-76
2022/05/06 12:15:55;;;;;;;;;;;21.70;48.20;;;;;;485911;245;1147;-76
2022/05/06 12:17:57;;;;;;;;;;;21.70;48.00;;;;;;485809;245;1073;-76
2022/05/06 12:19:58;;;;;;;;;;;21.80;48.00;;;;;;485921;245;1188;-76
2022/05/06 12:21:59;;;;;;;;;;;21.70;48.10;;;;;;486245;245;1288;-76
2022/05/06 12:24:01;;;;;;;;;;;21.70;48.10;;;;;;486084;245;1060;-76
2022/05/06 12:26:02;;;;;;;;;;;21.70;48.20;;;;;;486210;245;1077;-76
2022/05/06 12:28:03;;;;;;;;;;;21.70;48.00;;;;;;486300;242;1120;-76
2022/05/06 12:30:04;;;;;;;;;;;21.80;48.10;;;;;;486087;245;2178;-76
2022/05/06 12:32:06;;;;;;;;;;;21.90;47.90;;;;;;486044;245;1201;-76
2022/05/06 12:34:07;;;;;;;;;;;21.90;48.00;;;;;;486048;245;1070;-76
2022/05/06 12:36:09;;;;;;;;;;;21.80;47.90;;;;;;486316;245;1179;-76
2022/05/06 12:38:10;;;;;;;;;;;21.80;48.00;;;;;;486117;245;1057;-76
2022/05/06 12:40:12;;;;;;;;;;;21.70;48.10;;;;;;486206;245;1069;-76